createdAt,value
2018-05-24T00:02:19.530Z,94.39
2018-05-24T00:04:47.763Z,94.30
2018-05-24T00:07:15.988Z,94.45
2018-05-24T00:09:44.242Z,94.33
2018-05-24T00:12:12.480Z,94.78
2018-05-24T00:14:40.772Z,94.60
2018-05-24T00:17:08.971Z,93.94
2018-05-24T00:19:37.195Z,93.90
2018-05-24T00:22:06.184Z,93.92
2018-05-24T00:24:34.443Z,93.57
2018-05-24T00:27:02.675Z,93.90
2018-05-24T00:29:30.900Z,94.84
2018-05-24T00:31:59.165Z,95.27
2018-05-24T00:34:27.399Z,95.22
2018-05-24T00:36:55.619Z,95.30
2018-05-24T00:39:23.867Z,95.47
2018-05-24T00:41:52.108Z,95.27
2018-05-24T00:44:21.095Z,94.62
2018-05-24T00:46:49.363Z,94.34
2018-05-24T00:49:18.426Z,94.13
2018-05-24T00:51:46.651Z,93.91
2018-05-24T00:54:15.677Z,93.37
2018-05-24T00:56:43.662Z,93.11
2018-05-24T00:59:11.883Z,93.00
2018-05-24T01:01:40.917Z,92.99
2018-05-24T01:04:09.147Z,93.12
2018-05-24T01:06:37.376Z,92.87
2018-05-24T01:09:05.740Z,92.66
2018-05-24T01:11:33.975Z,92.70
2018-05-24T01:14:02.209Z,94.10
2018-05-24T01:16:30.455Z,95.12
2018-05-24T01:18:58.704Z,95.27
2018-05-24T01:21:26.922Z,95.75
2018-05-24T01:23:55.182Z,96.10
2018-05-24T01:26:23.408Z,96.31
2018-05-24T01:28:51.640Z,96.03
2018-05-24T01:31:19.894Z,95.58
2018-05-24T01:33:48.882Z,95.08
2018-05-24T01:36:17.112Z,94.40
2018-05-24T01:38:45.359Z,93.86
2018-05-24T01:41:13.588Z,93.64
2018-05-24T01:43:41.816Z,93.75
2018-05-24T01:46:10.055Z,93.92
2018-05-24T01:48:38.292Z,93.75
2018-05-24T01:51:06.563Z,93.55
2018-05-24T01:53:34.786Z,93.55
2018-05-24T01:56:03.775Z,93.38
2018-05-24T01:58:32.048Z,93.48
2018-05-24T02:01:00.262Z,93.18
2018-05-24T02:03:28.507Z,93.36
2018-05-24T02:05:57.498Z,93.59
2018-05-24T02:08:25.730Z,93.48
2018-05-24T02:10:53.999Z,93.25
2018-05-24T02:13:22.223Z,92.97
2018-05-24T02:15:50.449Z,91.91
2018-05-24T02:18:18.728Z,91.46
2018-05-24T02:20:46.967Z,90.93
2018-05-24T02:23:23.957Z,91.85
2018-05-24T02:25:52.179Z,92.42
2018-05-24T02:28:20.411Z,92.81
2018-05-24T02:30:48.667Z,94.18
2018-05-24T02:33:16.904Z,94.10
2018-05-24T02:35:45.172Z,94.18
2018-05-24T02:38:14.132Z,94.31
2018-05-24T02:40:42.364Z,95.68
2018-05-24T02:43:10.591Z,97.32
2018-05-24T02:45:38.834Z,98.36
2018-05-24T02:48:07.831Z,98.55
2018-05-24T02:50:36.054Z,98.36
2018-05-24T02:53:04.322Z,98.05
2018-05-24T02:55:32.540Z,97.58
2018-05-24T02:58:00.780Z,97.51
2018-05-24T03:00:29.020Z,97.95
2018-05-24T03:02:57.239Z,97.82
2018-05-24T03:05:25.499Z,97.74
2018-05-24T03:07:53.730Z,97.82
2018-05-24T03:10:21.955Z,97.79
2018-05-24T03:12:50.215Z,98.62
2018-05-24T03:15:18.438Z,98.96
2018-05-24T03:17:46.668Z,98.72
2018-05-24T03:20:14.943Z,98.37
2018-05-24T03:22:43.170Z,98.75
2018-05-24T03:25:11.392Z,99.52
2018-05-24T03:27:39.657Z,99.94
2018-05-24T03:30:07.895Z,99.96
2018-05-24T03:32:36.131Z,100.00
2018-05-24T03:35:04.395Z,100.00
2018-05-24T03:37:32.630Z,100.00
2018-05-24T03:40:00.859Z,100.00
2018-05-24T03:42:29.123Z,100.00
2018-05-24T03:44:57.355Z,100.00
2018-05-24T03:47:25.592Z,100.00
2018-05-24T03:49:53.872Z,100.00
2018-05-24T03:52:22.095Z,100.00
2018-05-24T03:54:50.329Z,100.00
2018-05-24T03:57:18.580Z,100.00
2018-05-24T04:00:13.247Z,100.00
2018-05-24T04:02:59.039Z,100.00
2018-05-24T04:05:28.040Z,100.00
2018-05-24T04:07:56.267Z,100.00
2018-05-24T04:10:24.516Z,100.00
2018-05-24T04:12:52.750Z,100.00
2018-05-24T04:15:21.006Z,99.85
2018-05-24T04:17:49.231Z,99.28
2018-05-24T04:20:17.455Z,98.92
2018-05-24T04:22:45.691Z,98.89
2018-05-24T04:25:13.925Z,98.56
2018-05-24T04:27:42.163Z,96.97
2018-05-24T04:30:10.444Z,97.08
2018-05-24T04:32:38.687Z,97.54
2018-05-24T04:35:06.916Z,95.83
2018-05-24T04:37:35.292Z,95.19
2018-05-24T04:40:03.584Z,93.39
2018-05-24T04:42:31.807Z,91.72
2018-05-24T04:45:00.039Z,91.54
2018-05-24T04:47:28.277Z,90.56
2018-05-24T04:49:56.508Z,88.48
2018-05-24T04:52:25.495Z,88.63
2018-05-24T04:54:53.817Z,88.51
2018-05-24T04:57:22.037Z,86.49
2018-05-24T04:59:50.263Z,84.84
2018-05-24T05:02:18.504Z,84.29
2018-05-24T05:04:47.499Z,83.86
2018-05-24T05:07:15.763Z,85.08
2018-05-24T05:09:43.987Z,84.99
2018-05-24T05:12:12.216Z,85.16
2018-05-24T05:14:40.547Z,86.08
2018-05-24T05:17:08.703Z,86.05
2018-05-24T05:19:36.981Z,86.36
2018-05-24T05:22:05.183Z,86.70
2018-05-24T05:24:33.407Z,85.62
2018-05-24T05:27:02.404Z,84.25
2018-05-24T05:29:30.666Z,82.89
2018-05-24T05:31:58.659Z,81.97
2018-05-24T05:34:26.896Z,79.80
2018-05-24T05:36:55.121Z,78.25
2018-05-24T05:39:23.452Z,77.97
2018-05-24T05:41:51.709Z,77.30
2018-05-24T05:44:20.707Z,76.95
2018-05-24T05:46:48.935Z,75.79
2018-05-24T05:49:17.166Z,75.37
2018-05-24T05:51:45.394Z,73.62
2018-05-24T05:54:13.624Z,72.90
2018-05-24T05:56:41.935Z,72.15
2018-05-24T05:59:10.195Z,72.72
2018-05-24T06:01:38.531Z,71.79
2018-05-24T06:04:06.803Z,72.98
2018-05-24T06:06:34.971Z,72.33
2018-05-24T06:09:03.201Z,71.65
2018-05-24T06:11:32.203Z,72.68
2018-05-24T06:14:00.430Z,72.14
2018-05-24T06:16:28.666Z,72.20
2018-05-24T06:18:56.952Z,70.61
2018-05-24T06:21:25.219Z,68.91
2018-05-24T06:23:53.451Z,68.68
2018-05-24T06:26:21.707Z,68.08
2018-05-24T06:28:49.952Z,68.96
2018-05-24T06:31:18.183Z,68.31
2018-05-24T06:33:46.403Z,68.04
2018-05-24T06:36:14.642Z,67.31
2018-05-24T06:38:42.866Z,66.22
2018-05-24T06:41:11.115Z,68.51
2018-05-24T06:43:39.338Z,68.13
2018-05-24T06:46:07.591Z,67.20
2018-05-24T06:48:35.816Z,65.58
2018-05-24T06:51:04.043Z,62.44
2018-05-24T06:53:32.333Z,59.22
2018-05-24T06:56:00.571Z,58.26
2018-05-24T06:58:28.836Z,57.14
2018-05-24T07:00:57.108Z,57.78
2018-05-24T07:03:25.353Z,57.02
2018-05-24T07:05:53.668Z,57.36
2018-05-24T07:08:21.849Z,56.76
2018-05-24T07:10:50.831Z,55.41
2018-05-24T07:13:19.059Z,55.65
2018-05-24T07:15:47.324Z,58.42
2018-05-24T07:18:15.561Z,62.32
2018-05-24T07:20:43.794Z,60.93
2018-05-24T07:23:12.332Z,60.47
2018-05-24T07:25:41.324Z,63.11
2018-05-24T07:28:09.543Z,63.23
2018-05-24T07:30:37.779Z,64.57
2018-05-24T07:33:06.766Z,65.96
2018-05-24T07:35:35.040Z,65.34
2018-05-24T07:38:03.262Z,63.62
2018-05-24T07:40:31.483Z,62.52
2018-05-24T07:43:00.512Z,59.34
2018-05-24T07:45:28.736Z,55.66
2018-05-24T07:47:56.959Z,52.63
2018-05-24T07:50:25.287Z,55.68
2018-05-24T07:52:53.504Z,52.82
2018-05-24T07:55:22.494Z,52.22
2018-05-24T07:57:50.751Z,53.01
2018-05-24T08:00:18.975Z,50.33
2018-05-24T08:02:47.199Z,48.71
2018-05-24T08:05:15.510Z,49.12
2018-05-24T08:07:43.497Z,50.65
2018-05-24T08:10:11.732Z,50.80
2018-05-24T08:12:39.975Z,47.68
2018-05-24T08:15:08.232Z,47.44
2018-05-24T08:17:36.490Z,46.55
2018-05-24T08:20:04.720Z,43.50
2018-05-24T08:22:33.040Z,43.93
2018-05-24T08:25:01.944Z,44.46
2018-05-24T08:27:30.187Z,41.35
2018-05-24T08:29:59.191Z,37.62
2018-05-24T08:32:27.443Z,35.10
2018-05-24T08:34:56.452Z,36.85
2018-05-24T08:37:25.435Z,37.32
2018-05-24T08:39:53.658Z,38.40
2018-05-24T08:42:21.900Z,40.95
2018-05-24T08:44:50.890Z,44.54
2018-05-24T08:47:19.168Z,42.57
2018-05-24T08:49:47.384Z,43.97
2018-05-24T08:52:16.384Z,44.18
2018-05-24T08:54:44.602Z,45.52
2018-05-24T08:57:12.873Z,48.65
2018-05-24T08:59:41.109Z,50.62
2018-05-24T09:02:09.331Z,49.74
2018-05-24T09:04:38.380Z,49.43
2018-05-24T09:07:06.592Z,49.12
2018-05-24T09:09:34.830Z,50.51
2018-05-24T09:12:03.083Z,47.27
2018-05-24T09:14:31.305Z,45.77
2018-05-24T09:16:59.527Z,47.67
2018-05-24T09:19:27.766Z,53.15
2018-05-24T09:21:56.081Z,53.68
2018-05-24T09:24:24.220Z,51.87
2018-05-24T09:26:52.472Z,54.97
2018-05-24T09:29:21.811Z,57.03
2018-05-24T09:31:49.939Z,54.95
2018-05-24T09:34:18.216Z,52.25
2018-05-24T09:36:46.455Z,48.72
2018-05-24T09:39:14.691Z,48.43
2018-05-24T09:41:42.955Z,47.58
2018-05-24T09:44:11.185Z,46.82
2018-05-24T09:46:39.409Z,46.35
2018-05-24T09:49:07.824Z,44.94
2018-05-24T09:51:36.815Z,45.07
2018-05-24T09:54:05.050Z,43.57
2018-05-24T09:56:33.311Z,49.86
2018-05-24T09:59:01.535Z,46.57
2018-05-24T10:01:30.528Z,44.99
2018-05-24T10:03:58.791Z,44.96
2018-05-24T10:06:27.014Z,44.25
2018-05-24T10:08:55.239Z,44.76
2018-05-24T10:11:23.496Z,45.53
2018-05-24T10:13:51.722Z,44.91
2018-05-24T10:16:20.039Z,46.02
2018-05-24T10:18:48.191Z,45.96
2018-05-24T10:21:16.411Z,45.83
2018-05-24T10:23:44.643Z,47.77
2018-05-24T10:26:12.923Z,46.55
2018-05-24T10:28:41.159Z,44.41
2018-05-24T10:31:09.374Z,42.80
2018-05-24T10:33:37.627Z,42.02
2018-05-24T10:36:06.622Z,43.23
2018-05-24T10:38:34.856Z,43.30
2018-05-24T10:41:03.099Z,44.54
2018-05-24T10:43:31.332Z,41.47
2018-05-24T10:46:00.328Z,40.57
2018-05-24T10:48:28.593Z,38.88
2018-05-24T10:50:56.827Z,40.88
2018-05-24T10:53:25.027Z,38.56
2018-05-24T10:55:53.294Z,37.54
2018-05-24T10:58:21.515Z,36.48
2018-05-24T11:00:49.743Z,36.17
2018-05-24T11:03:18.014Z,36.08
2018-05-24T11:05:46.246Z,32.29
2018-05-24T11:08:15.228Z,32.14
2018-05-24T11:10:43.462Z,30.66
2018-05-24T11:13:12.447Z,32.25
2018-05-24T11:15:40.683Z,32.44
2018-05-24T11:18:08.915Z,33.65
2018-05-24T11:20:37.180Z,34.37
2018-05-24T11:23:05.411Z,36.37
2018-05-24T11:25:34.402Z,37.94
2018-05-24T11:28:02.658Z,38.20
2018-05-24T11:30:30.894Z,35.43
2018-05-24T11:32:59.123Z,34.87
2018-05-24T11:35:28.147Z,35.35
2018-05-24T11:37:56.376Z,40.42
2018-05-24T11:40:24.599Z,43.16
2018-05-24T11:42:52.872Z,40.69
2018-05-24T11:45:21.846Z,36.82
2018-05-24T11:47:50.075Z,37.16
2018-05-24T11:50:19.091Z,37.39
2018-05-24T11:52:47.314Z,37.63
2018-05-24T11:55:15.543Z,39.11
2018-05-24T11:57:43.802Z,41.64
2018-05-24T12:00:12.797Z,40.87
2018-05-24T12:02:41.022Z,36.82
2018-05-24T12:05:09.279Z,35.25
2018-05-24T12:07:37.503Z,33.46
2018-05-24T12:10:05.735Z,33.94
2018-05-24T12:12:34.751Z,32.55
2018-05-24T12:15:02.992Z,31.08
2018-05-24T12:17:31.207Z,29.68
2018-05-24T12:19:59.480Z,26.40
2018-05-24T12:22:27.715Z,24.38
2018-05-24T12:24:55.935Z,22.88
2018-05-24T12:27:24.179Z,22.62
2018-05-24T12:29:52.394Z,21.84
2018-05-24T12:32:20.634Z,22.08
2018-05-24T12:34:48.887Z,28.80
2018-05-24T12:37:17.107Z,28.91
2018-05-24T12:39:45.326Z,26.44
2018-05-24T12:42:13.739Z,24.20
2018-05-24T12:44:42.752Z,24.24
2018-05-24T12:47:10.959Z,22.49
2018-05-24T12:49:39.206Z,25.12
2018-05-24T12:52:08.192Z,23.97
2018-05-24T12:54:36.412Z,21.08
2018-05-24T12:57:04.663Z,22.33
2018-05-24T12:59:32.884Z,20.25
2018-05-24T13:02:01.107Z,19.52
2018-05-24T13:04:29.350Z,18.62
2018-05-24T13:06:57.571Z,20.59
2018-05-24T13:09:25.802Z,28.01
2018-05-24T13:11:54.065Z,32.24
2018-05-24T13:14:22.279Z,30.41
2018-05-24T13:16:50.499Z,27.89
2018-05-24T13:19:18.760Z,29.34
2018-05-24T13:21:46.995Z,35.13
2018-05-24T13:24:15.982Z,37.08
2018-05-24T13:26:44.235Z,38.98
2018-05-24T13:29:12.462Z,37.28
2018-05-24T13:31:40.693Z,33.84
2018-05-24T13:34:08.968Z,34.68
2018-05-24T13:36:37.196Z,34.77
2018-05-24T13:39:06.195Z,35.08
2018-05-24T13:41:34.427Z,40.37
2018-05-24T13:44:03.419Z,41.49
2018-05-24T13:46:31.676Z,39.37
2018-05-24T13:48:59.914Z,42.13
2018-05-24T13:51:28.144Z,42.94
2018-05-24T13:53:56.369Z,44.69
2018-05-24T13:56:24.629Z,44.71
2018-05-24T13:58:52.831Z,43.50
2018-05-24T14:01:21.051Z,41.69
2018-05-24T14:03:50.076Z,40.59
2018-05-24T14:06:18.304Z,40.90
2018-05-24T14:08:46.519Z,44.12
2018-05-24T14:11:14.767Z,46.27
2018-05-24T14:13:42.994Z,48.81
2018-05-24T14:16:11.219Z,51.27
2018-05-24T14:18:39.490Z,52.60
2018-05-24T14:21:07.707Z,51.75
2018-05-24T14:23:35.940Z,52.12
2018-05-24T14:26:04.215Z,53.24
2018-05-24T14:28:32.431Z,54.83
2018-05-24T14:31:00.658Z,54.62
2018-05-24T14:33:28.915Z,56.06
2018-05-24T14:35:57.142Z,57.70
2018-05-24T14:38:26.118Z,59.75
2018-05-24T14:40:54.366Z,60.94
2018-05-24T14:43:22.595Z,62.32
2018-05-24T14:45:50.820Z,61.83
2018-05-24T14:48:19.068Z,62.36
2018-05-24T14:50:47.303Z,61.87
2018-05-24T14:53:15.532Z,61.75
2018-05-24T14:55:43.782Z,61.57
2018-05-24T14:58:12.006Z,60.17
2018-05-24T15:00:40.231Z,59.29
2018-05-24T15:03:08.487Z,60.89
2018-05-24T15:05:36.740Z,69.96
2018-05-24T15:08:04.939Z,77.91
2018-05-24T15:10:33.959Z,79.72
2018-05-24T15:13:02.179Z,84.73
2018-05-24T15:15:30.403Z,86.33
2018-05-24T15:17:58.654Z,87.79
2018-05-24T15:20:26.877Z,86.39
2018-05-24T15:22:55.103Z,85.96
2018-05-24T15:25:23.368Z,85.14
2018-05-24T15:27:51.603Z,86.81
2018-05-24T15:30:19.815Z,84.22
2018-05-24T15:32:48.079Z,86.27
2018-05-24T15:35:16.298Z,87.55
2018-05-24T15:37:44.523Z,89.09
2018-05-24T15:40:12.772Z,90.19
2018-05-24T15:42:41.001Z,90.65
2018-05-24T15:45:09.228Z,90.32
2018-05-24T15:47:37.791Z,90.17
2018-05-24T15:50:06.017Z,89.46
2018-05-24T15:52:34.283Z,89.45
2018-05-24T15:55:02.535Z,86.42
2018-05-24T15:57:30.756Z,86.84
2018-05-24T15:59:58.975Z,85.22
2018-05-24T16:02:27.229Z,85.45
2018-05-24T16:04:56.216Z,83.56
2018-05-24T16:07:24.439Z,85.54
2018-05-24T16:09:52.696Z,87.09
2018-05-24T16:12:20.910Z,85.42
2018-05-24T16:14:49.139Z,84.73
2018-05-24T16:17:17.387Z,85.07
2018-05-24T16:19:45.611Z,86.83
2018-05-24T16:22:13.831Z,85.22
2018-05-24T16:24:42.079Z,90.36
2018-05-24T16:27:11.066Z,88.54
2018-05-24T16:29:39.283Z,89.40
2018-05-24T16:32:07.522Z,89.93
2018-05-24T16:34:35.749Z,87.40
2018-05-24T16:37:03.967Z,87.29
2018-05-24T16:39:32.239Z,86.69
2018-05-24T16:42:00.464Z,86.48
2018-05-24T16:44:28.684Z,86.28
2018-05-24T16:46:56.952Z,86.59
2018-05-24T16:49:25.170Z,81.75
2018-05-24T16:51:53.391Z,80.38
2018-05-24T16:54:22.421Z,79.68
2018-05-24T16:56:50.611Z,79.07
2018-05-24T16:59:18.835Z,77.55
2018-05-24T17:01:47.875Z,77.67
2018-05-24T17:04:16.088Z,79.09
2018-05-24T17:06:44.315Z,78.36
2018-05-24T17:09:12.510Z,78.81
2018-05-24T17:11:40.731Z,80.50
2018-05-24T17:14:08.952Z,80.12
2018-05-24T17:16:37.215Z,80.93
2018-05-24T17:19:05.436Z,80.29
2018-05-24T17:21:33.670Z,79.52
2018-05-24T17:24:01.927Z,80.09
2018-05-24T17:26:30.147Z,80.46
2018-05-24T17:28:58.367Z,81.40
2018-05-24T17:31:26.615Z,84.03
2018-05-24T17:33:54.844Z,85.91
2018-05-24T17:36:23.064Z,87.21
2018-05-24T17:38:51.331Z,86.04
2018-05-24T17:41:19.556Z,83.08
2018-05-24T17:43:47.782Z,82.68
2018-05-24T17:46:16.005Z,83.89
2018-05-24T17:48:44.234Z,85.48
2018-05-24T17:51:12.471Z,85.38
2018-05-24T17:53:40.699Z,86.10
2018-05-24T17:56:08.922Z,87.63
2018-05-24T17:58:37.185Z,88.74
2018-05-24T18:01:05.404Z,88.57
2018-05-24T18:03:33.627Z,88.80
2018-05-24T18:06:01.892Z,88.71
2018-05-24T18:08:30.880Z,89.50
2018-05-24T18:10:59.105Z,89.16
2018-05-24T18:13:27.363Z,89.63
2018-05-24T18:15:55.588Z,89.93
2018-05-24T18:18:23.808Z,90.46
2018-05-24T18:20:52.059Z,91.34
2018-05-24T18:23:20.279Z,91.88
2018-05-24T18:25:48.499Z,91.63
2018-05-24T18:28:16.746Z,92.03
2018-05-24T18:30:44.963Z,91.83
2018-05-24T18:33:13.187Z,91.07
2018-05-24T18:35:41.468Z,91.80
2018-05-24T18:38:09.691Z,92.21
2018-05-24T18:40:38.683Z,93.44
2018-05-24T18:43:06.926Z,93.22
2018-05-24T18:45:35.138Z,92.96
2018-05-24T18:48:04.149Z,93.43
2018-05-24T18:50:32.371Z,93.83
2018-05-24T18:53:00.932Z,94.55
2018-05-24T18:55:29.163Z,94.90
2018-05-24T18:57:57.384Z,95.00
2018-05-24T19:00:25.619Z,95.14
2018-05-24T19:02:54.607Z,95.46
2018-05-24T19:05:22.931Z,95.88
2018-05-24T19:07:51.214Z,96.39
2018-05-24T19:10:19.431Z,96.62
2018-05-24T19:12:47.660Z,96.47
2018-05-24T19:15:15.906Z,96.60
2018-05-24T19:17:44.130Z,96.96
2018-05-24T19:20:12.359Z,97.14
2018-05-24T19:22:40.635Z,97.82
2018-05-24T19:25:08.995Z,97.64
2018-05-24T19:27:37.975Z,98.10
2018-05-24T19:30:06.195Z,98.52
2018-05-24T19:32:34.511Z,98.37
2018-05-24T19:35:02.743Z,98.30
2018-05-24T19:37:30.966Z,97.72
2018-05-24T19:39:59.234Z,97.89
2018-05-24T19:42:27.459Z,98.00
2018-05-24T19:44:55.687Z,98.16
2018-05-24T19:47:23.953Z,97.87
2018-05-24T19:49:52.184Z,97.85
2018-05-24T19:52:21.167Z,97.91
2018-05-24T19:54:49.407Z,98.05
2018-05-24T19:57:17.631Z,98.57
2018-05-24T19:59:45.878Z,98.66
2018-05-24T20:02:14.099Z,99.12
2018-05-24T20:04:42.318Z,99.37
2018-05-24T20:07:10.764Z,99.27
2018-05-24T20:09:38.999Z,98.91
2018-05-24T20:12:07.986Z,99.15
2018-05-24T20:14:36.259Z,100.00
2018-05-24T20:17:04.488Z,99.85
2018-05-24T20:19:32.712Z,99.66
2018-05-24T20:22:00.979Z,99.70
2018-05-24T20:24:29.201Z,99.95
2018-05-24T20:26:57.436Z,100.00
2018-05-24T20:29:25.738Z,100.00
2018-05-24T20:31:53.935Z,100.00
2018-05-24T20:34:22.165Z,100.00
2018-05-24T20:36:50.417Z,100.00
2018-05-24T20:39:18.657Z,100.00
2018-05-24T20:41:46.886Z,100.00
2018-05-24T20:44:15.159Z,100.00
2018-05-24T20:46:43.387Z,100.00
2018-05-24T20:49:11.693Z,100.00
2018-05-24T20:51:39.936Z,100.00
2018-05-24T20:54:08.213Z,100.00
2018-05-24T20:56:36.403Z,100.00
2018-05-24T20:59:04.672Z,100.00
2018-05-24T21:01:32.917Z,100.00
2018-05-24T21:04:01.152Z,100.00
2018-05-24T21:06:29.407Z,100.00
2018-05-24T21:08:57.647Z,100.00
2018-05-24T21:11:26.649Z,100.00
2018-05-24T21:13:54.928Z,100.00
2018-05-24T21:16:23.130Z,100.00
2018-05-24T21:18:51.363Z,100.00
2018-05-24T21:21:20.384Z,100.00
2018-05-24T21:23:48.607Z,100.00
2018-05-24T21:26:16.843Z,100.00
2018-05-24T21:28:45.107Z,100.00
2018-05-24T21:31:13.337Z,100.00
2018-05-24T21:33:41.591Z,100.00
2018-05-24T21:36:09.835Z,100.00
2018-05-24T21:38:38.059Z,100.00
2018-05-24T21:41:06.298Z,100.00
2018-05-24T21:43:34.561Z,100.00
2018-05-24T21:46:02.799Z,100.00
2018-05-24T21:48:31.035Z,100.00
2018-05-24T21:50:59.314Z,100.00
2018-05-24T21:53:27.549Z,100.00
2018-05-24T21:55:55.788Z,100.00
2018-05-24T21:58:24.043Z,100.00
2018-05-24T22:00:52.274Z,100.00
2018-05-24T22:03:21.267Z,100.00
2018-05-24T22:05:49.539Z,100.00
2018-05-24T22:08:17.767Z,100.00
2018-05-24T22:10:46.007Z,100.00
2018-05-24T22:13:15.039Z,100.00
2018-05-24T22:15:43.269Z,100.00
2018-05-24T22:18:11.499Z,100.00
2018-05-24T22:20:39.754Z,100.00
2018-05-24T22:23:07.994Z,100.00
2018-05-24T22:25:36.987Z,100.00
2018-05-24T22:28:05.268Z,100.00
2018-05-24T22:30:33.479Z,100.00
2018-05-24T22:33:01.711Z,100.00
2018-05-24T22:35:30.730Z,100.00
2018-05-24T22:37:58.959Z,100.00
2018-05-24T22:40:27.186Z,100.00
2018-05-24T22:42:55.535Z,100.00
2018-05-24T22:45:23.755Z,100.00
2018-05-24T22:47:51.985Z,100.00
2018-05-24T22:50:21.023Z,100.00
2018-05-24T22:52:49.262Z,100.00
2018-05-24T22:55:17.491Z,100.00
2018-05-24T22:57:45.758Z,100.00
2018-05-24T23:00:14.013Z,100.00
2018-05-24T23:02:43.009Z,100.00
2018-05-24T23:05:11.251Z,100.00
2018-05-24T23:07:39.483Z,100.00
2018-05-24T23:10:07.748Z,100.00
2018-05-24T23:12:36.099Z,100.00
2018-05-24T23:15:04.333Z,100.00
2018-05-24T23:17:32.571Z,100.00
2018-05-24T23:20:00.820Z,100.00
2018-05-24T23:22:38.307Z,100.00
2018-05-24T23:25:07.341Z,100.00
2018-05-24T23:27:36.394Z,100.00
2018-05-24T23:30:04.629Z,100.00
2018-05-24T23:32:32.871Z,100.00
2018-05-24T23:35:01.113Z,100.00
2018-05-24T23:37:29.343Z,100.00
2018-05-24T23:39:57.671Z,100.00
2018-05-24T23:42:25.900Z,100.00
2018-05-24T23:44:54.126Z,100.00
2018-05-24T23:47:22.389Z,100.00
2018-05-24T23:49:50.613Z,100.00
2018-05-24T23:52:18.855Z,100.00
2018-05-24T23:54:47.873Z,100.00
2018-05-24T23:57:16.112Z,100.00
2018-05-24T23:59:44.344Z,100.00
